sensor_id;sensor_type;location;lat;lon;timestamp;temperature;humidity
12872;DHT22;6504;53.766;9.626;2022-11-25T00:01:15;5.50;99.90
12872;DHT22;6504;53.766;9.626;2022-11-25T00:03:44;5.50;99.90
12872;DHT22;6504;53.766;9.626;2022-11-25T00:06:14;5.50;99.90
12872;DHT22;6504;53.766;9.626;2022-11-25T00:08:44;5.50;99.90
12872;DHT22;6504;53.766;9.626;2022-11-25T00:11:13;5.40;99.90
12872;DHT22;6504;53.766;9.626;2022-11-25T00:13:44;5.40;99.90
12872;DHT22;6504;53.766;9.626;2022-11-25T00:16:14;5.40;99.90
12872;DHT22;6504;53.766;9.626;2022-11-25T00:18:43;5.40;99.90
12872;DHT22;6504;53.766;9.626;2022-11-25T00:21:14;5.40;99.90
12872;DHT22;6504;53.766;9.626;2022-11-25T00:23:42;5.40;99.90
12872;DHT22;6504;53.766;9.626;2022-11-25T00:26:12;5.40;99.90
12872;DHT22;6504;53.766;9.626;2022-11-25T00:28:43;5.40;99.90
12872;DHT22;6504;53.766;9.626;2022-11-25T00:31:12;5.40;99.90
12872;DHT22;6504;53.766;9.626;2022-11-25T00:33:41;5.40;99.90
12872;DHT22;6504;53.766;9.626;2022-11-25T00:36:14;5.30;99.90
12872;DHT22;6504;53.766;9.626;2022-11-25T00:38:43;5.30;99.90
12872;DHT22;6504;53.766;9.626;2022-11-25T00:41:11;5.30;99.90
12872;DHT22;6504;53.766;9.626;2022-11-25T00:43:58;5.30;99.90
12872;DHT22;6504;53.766;9.626;2022-11-25T00:46:43;5.30;99.90
12872;DHT22;6504;53.766;9.626;2022-11-25T00:49:11;5.30;99.90
12872;DHT22;6504;53.766;9.626;2022-11-25T00:51:39;5.30;99.90
12872;DHT22;6504;53.766;9.626;2022-11-25T00:54:07;5.30;99.90
12872;DHT22;6504;53.766;9.626;2022-11-25T00:56:35;5.30;99.90
12872;DHT22;6504;53.766;9.626;2022-11-25T00:59:05;5.30;99.90
12872;DHT22;6504;53.766;9.626;2022-11-25T01:01:33;5.30;99.90
12872;DHT22;6504;53.766;9.626;2022-11-25T01:04:02;5.30;99.90
12872;DHT22;6504;53.766;9.626;2022-11-25T01:06:30;5.20;99.90
12872;DHT22;6504;53.766;9.626;2022-11-25T01:08:58;5.30;99.90
12872;DHT22;6504;53.766;9.626;2022-11-25T01:11:26;5.20;99.90
12872;DHT22;6504;53.766;9.626;2022-11-25T01:13:54;5.20;99.90
12872;DHT22;6504;53.766;9.626;2022-11-25T01:16:29;5.20;99.90
12872;DHT22;6504;53.766;9.626;2022-11-25T01:18:58;5.20;99.90
12872;DHT22;6504;53.766;9.626;2022-11-25T01:21:28;5.20;99.90
12872;DHT22;6504;53.766;9.626;2022-11-25T01:23:58;5.20;99.90
12872;DHT22;6504;53.766;9.626;2022-11-25T01:26:27;5.20;99.90
12872;DHT22;6504;53.766;9.626;2022-11-25T01:28:57;5.10;99.90
12872;DHT22;6504;53.766;9.626;2022-11-25T01:31:29;5.10;99.90
12872;DHT22;6504;53.766;9.626;2022-11-25T01:34:00;5.10;99.90
12872;DHT22;6504;53.766;9.626;2022-11-25T01:36:29;5.00;99.90
12872;DHT22;6504;53.766;9.626;2022-11-25T01:38:58;5.00;99.90
12872;DHT22;6504;53.766;9.626;2022-11-25T01:41:29;5.00;99.90
12872;DHT22;6504;53.766;9.626;2022-11-25T01:44:06;5.00;99.90
12872;DHT22;6504;53.766;9.626;2022-11-25T01:46:52;5.00;99.90
12872;DHT22;6504;53.766;9.626;2022-11-25T01:49:26;5.00;99.90
12872;DHT22;6504;53.766;9.626;2022-11-25T01:52:00;5.00;99.90
12872;DHT22;6504;53.766;9.626;2022-11-25T01:54:35;5.00;99.90
12872;DHT22;6504;53.766;9.626;2022-11-25T01:57:08;5.00;99.90
12872;DHT22;6504;53.766;9.626;2022-11-25T01:59:40;5.00;99.90
12872;DHT22;6504;53.766;9.626;2022-11-25T02:02:11;5.10;99.90
12872;DHT22;6504;53.766;9.626;2022-11-25T02:04:41;5.10;99.90
12872;DHT22;6504;53.766;9.626;2022-11-25T02:07:15;5.10;99.90
12872;DHT22;6504;53.766;9.626;2022-11-25T02:09:46;5.00;99.90
12872;DHT22;6504;53.766;9.626;2022-11-25T02:12:17;5.00;99.90
12872;DHT22;6504;53.766;9.626;2022-11-25T02:14:48;5.00;99.90
12872;DHT22;6504;53.766;9.626;2022-11-25T02:17:19;5.00;99.90
12872;DHT22;6504;53.766;9.626;2022-11-25T02:20:00;5.00;99.90
12872;DHT22;6504;53.766;9.626;2022-11-25T02:22:52;5.00;99.90
12872;DHT22;6504;53.766;9.626;2022-11-25T02:25:25;5.00;99.90
12872;DHT22;6504;53.766;9.626;2022-11-25T02:27:56;4.90;99.90
12872;DHT22;6504;53.766;9.626;2022-11-25T02:30:26;4.90;99.90
12872;DHT22;6504;53.766;9.626;2022-11-25T02:32:54;4.90;99.90
12872;DHT22;6504;53.766;9.626;2022-11-25T02:35:25;4.90;99.90
12872;DHT22;6504;53.766;9.626;2022-11-25T02:37:55;4.90;99.90
12872;DHT22;6504;53.766;9.626;2022-11-25T02:40:27;4.90;99.90
12872;DHT22;6504;53.766;9.626;2022-11-25T02:42:58;4.90;99.90
12872;DHT22;6504;53.766;9.626;2022-11-25T02:45:36;4.90;99.90
12872;DHT22;6504;53.766;9.626;2022-11-25T02:48:06;4.80;99.90
12872;DHT22;6504;53.766;9.626;2022-11-25T02:50:34;4.80;99.90
12872;DHT22;6504;53.766;9.626;2022-11-25T02:53:03;4.80;99.90
12872;DHT22;6504;53.766;9.626;2022-11-25T02:55:32;4.70;99.90
12872;DHT22;6504;53.766;9.626;2022-11-25T02:58:00;4.70;99.90
12872;DHT22;6504;53.766;9.626;2022-11-25T03:00:29;4.70;99.90
12872;DHT22;6504;53.766;9.626;2022-11-25T03:02:57;4.60;99.90
12872;DHT22;6504;53.766;9.626;2022-11-25T03:05:25;4.60;99.90
12872;DHT22;6504;53.766;9.626;2022-11-25T03:07:53;4.60;99.90
12872;DHT22;6504;53.766;9.626;2022-11-25T03:10:22;4.60;99.90
12872;DHT22;6504;53.766;9.626;2022-11-25T03:12:52;4.60;99.90
12872;DHT22;6504;53.766;9.626;2022-11-25T03:15:20;4.60;99.90
12872;DHT22;6504;53.766;9.626;2022-11-25T03:17:48;4.60;99.90
12872;DHT22;6504;53.766;9.626;2022-11-25T03:20:17;4.60;99.90
12872;DHT22;6504;53.766;9.626;2022-11-25T03:22:46;4.50;99.90
12872;DHT22;6504;53.766;9.626;2022-11-25T03:25:14;4.50;99.90
12872;DHT22;6504;53.766;9.626;2022-11-25T03:27:43;4.60;99.90
12872;DHT22;6504;53.766;9.626;2022-11-25T03:30:15;4.50;99.90
12872;DHT22;6504;53.766;9.626;2022-11-25T03:32:44;4.50;99.90
12872;DHT22;6504;53.766;9.626;2022-11-25T03:35:12;4.50;99.90
12872;DHT22;6504;53.766;9.626;2022-11-25T03:37:41;4.50;99.90
12872;DHT22;6504;53.766;9.626;2022-11-25T03:40:11;4.50;99.90
12872;DHT22;6504;53.766;9.626;2022-11-25T03:42:40;4.50;99.90
12872;DHT22;6504;53.766;9.626;2022-11-25T03:45:10;4.50;99.90
12872;DHT22;6504;53.766;9.626;2022-11-25T03:47:41;4.50;99.90
12872;DHT22;6504;53.766;9.626;2022-11-25T03:50:11;4.50;99.90
12872;DHT22;6504;53.766;9.626;2022-11-25T03:52:40;4.50;99.90
12872;DHT22;6504;53.766;9.626;2022-11-25T03:55:09;4.40;99.90
12872;DHT22;6504;53.766;9.626;2022-11-25T03:57:38;4.40;99.90
12872;DHT22;6504;53.766;9.626;2022-11-25T04:00:08;4.40;99.90
12872;DHT22;6504;53.766;9.626;2022-11-25T04:02:36;4.40;99.90
12872;DHT22;6504;53.766;9.626;2022-11-25T04:05:06;4.40;99.90
12872;DHT22;6504;53.766;9.626;2022-11-25T04:07:34;4.40;99.90
12872;DHT22;6504;53.766;9.626;2022-11-25T04:10:03;4.30;99.90
12872;DHT22;6504;53.766;9.626;2022-11-25T04:12:31;4.30;99.90
12872;DHT22;6504;53.766;9.626;2022-11-25T04:15:15;4.30;99.90
12872;DHT22;6504;53.766;9.626;2022-11-25T04:17:43;4.30;99.90
12872;DHT22;6504;53.766;9.626;2022-11-25T04:20:13;4.30;99.90
12872;DHT22;6504;53.766;9.626;2022-11-25T04:22:41;4.30;99.90
12872;DHT22;6504;53.766;9.626;2022-11-25T04:25:10;4.30;99.90
12872;DHT22;6504;53.766;9.626;2022-11-25T04:27:38;4.30;99.90
12872;DHT22;6504;53.766;9.626;2022-11-25T04:30:07;4.30;99.90
12872;DHT22;6504;53.766;9.626;2022-11-25T04:32:36;4.30;99.90
12872;DHT22;6504;53.766;9.626;2022-11-25T04:35:05;4.30;99.90
12872;DHT22;6504;53.766;9.626;2022-11-25T04:37:34;4.30;99.90
12872;DHT22;6504;53.766;9.626;2022-11-25T04:40:03;4.30;99.90
12872;DHT22;6504;53.766;9.626;2022-11-25T04:42:32;4.30;99.90
12872;DHT22;6504;53.766;9.626;2022-11-25T04:45:03;4.30;99.90
12872;DHT22;6504;53.766;9.626;2022-11-25T04:47:51;4.30;99.90
12872;DHT22;6504;53.766;9.626;2022-11-25T04:50:22;4.30;99.90
12872;DHT22;6504;53.766;9.626;2022-11-25T04:52:51;4.30;99.90
12872;DHT22;6504;53.766;9.626;2022-11-25T04:55:19;4.30;99.90
12872;DHT22;6504;53.766;9.626;2022-11-25T04:57:47;4.30;99.90
12872;DHT22;6504;53.766;9.626;2022-11-25T05:00:17;4.30;99.90
12872;DHT22;6504;53.766;9.626;2022-11-25T05:02:44;4.30;99.90
12872;DHT22;6504;53.766;9.626;2022-11-25T05:05:12;4.30;99.90
12872;DHT22;6504;53.766;9.626;2022-11-25T05:07:40;4.30;99.90
12872;DHT22;6504;53.766;9.626;2022-11-25T05:10:10;4.30;99.90
12872;DHT22;6504;53.766;9.626;2022-11-25T05:12:39;4.30;99.90
12872;DHT22;6504;53.766;9.626;2022-11-25T05:15:08;4.30;99.90
12872;DHT22;6504;53.766;9.626;2022-11-25T05:17:37;4.40;99.90
12872;DHT22;6504;53.766;9.626;2022-11-25T05:20:06;4.40;99.90
12872;DHT22;6504;53.766;9.626;2022-11-25T05:22:35;4.40;99.90
12872;DHT22;6504;53.766;9.626;2022-11-25T05:25:03;4.40;99.90
12872;DHT22;6504;53.766;9.626;2022-11-25T05:27:33;4.50;99.90
12872;DHT22;6504;53.766;9.626;2022-11-25T05:30:01;4.40;99.90
12872;DHT22;6504;53.766;9.626;2022-11-25T05:32:30;4.50;99.90
12872;DHT22;6504;53.766;9.626;2022-11-25T05:34:58;4.50;99.90
12872;DHT22;6504;53.766;9.626;2022-11-25T05:37:26;4.50;99.90
12872;DHT22;6504;53.766;9.626;2022-11-25T05:39:54;4.50;99.90
12872;DHT22;6504;53.766;9.626;2022-11-25T05:42:22;4.50;99.90
12872;DHT22;6504;53.766;9.626;2022-11-25T05:44:51;4.50;99.90
12872;DHT22;6504;53.766;9.626;2022-11-25T05:47:19;4.50;99.90
12872;DHT22;6504;53.766;9.626;2022-11-25T05:49:47;4.60;99.90
12872;DHT22;6504;53.766;9.626;2022-11-25T05:52:15;4.50;99.90
12872;DHT22;6504;53.766;9.626;2022-11-25T05:54:43;4.60;99.90
12872;DHT22;6504;53.766;9.626;2022-11-25T05:57:12;4.60;99.90
12872;DHT22;6504;53.766;9.626;2022-11-25T05:59:40;4.60;99.90
12872;DHT22;6504;53.766;9.626;2022-11-25T06:02:10;4.60;99.90
12872;DHT22;6504;53.766;9.626;2022-11-25T06:04:38;4.60;99.90
12872;DHT22;6504;53.766;9.626;2022-11-25T06:07:06;4.60;99.90
12872;DHT22;6504;53.766;9.626;2022-11-25T06:09:34;4.60;99.90
12872;DHT22;6504;53.766;9.626;2022-11-25T06:12:03;4.70;99.90
12872;DHT22;6504;53.766;9.626;2022-11-25T06:14:31;4.60;99.90
12872;DHT22;6504;53.766;9.626;2022-11-25T06:16:59;4.70;99.90
12872;DHT22;6504;53.766;9.626;2022-11-25T06:19:29;4.70;99.90
12872;DHT22;6504;53.766;9.626;2022-11-25T06:21:57;4.70;99.90
12872;DHT22;6504;53.766;9.626;2022-11-25T06:24:25;4.70;99.90
12872;DHT22;6504;53.766;9.626;2022-11-25T06:26:53;4.80;99.90
12872;DHT22;6504;53.766;9.626;2022-11-25T06:29:21;4.80;99.90
12872;DHT22;6504;53.766;9.626;2022-11-25T06:31:49;4.70;99.90
12872;DHT22;6504;53.766;9.626;2022-11-25T06:34:17;4.80;99.90
12872;DHT22;6504;53.766;9.626;2022-11-25T06:36:47;4.80;99.90
12872;DHT22;6504;53.766;9.626;2022-11-25T06:39:15;4.80;99.90
12872;DHT22;6504;53.766;9.626;2022-11-25T06:41:43;4.80;99.90
12872;DHT22;6504;53.766;9.626;2022-11-25T06:44:14;4.80;99.90
12872;DHT22;6504;53.766;9.626;2022-11-25T06:46:42;4.80;99.90
12872;DHT22;6504;53.766;9.626;2022-11-25T06:49:10;4.80;99.90
12872;DHT22;6504;53.766;9.626;2022-11-25T06:51:38;4.80;99.90
12872;DHT22;6504;53.766;9.626;2022-11-25T06:54:08;4.90;99.90
12872;DHT22;6504;53.766;9.626;2022-11-25T06:56:36;4.90;99.90
12872;DHT22;6504;53.766;9.626;2022-11-25T06:59:04;4.90;99.90
12872;DHT22;6504;53.766;9.626;2022-11-25T07:01:32;4.90;99.90
12872;DHT22;6504;53.766;9.626;2022-11-25T07:04:01;4.90;99.90
12872;DHT22;6504;53.766;9.626;2022-11-25T07:06:31;4.90;99.90
12872;DHT22;6504;53.766;9.626;2022-11-25T07:09:00;4.90;99.90
12872;DHT22;6504;53.766;9.626;2022-11-25T07:11:31;4.90;99.90
12872;DHT22;6504;53.766;9.626;2022-11-25T07:14:01;4.90;99.90
12872;DHT22;6504;53.766;9.626;2022-11-25T07:16:30;4.90;99.90
12872;DHT22;6504;53.766;9.626;2022-11-25T07:18:59;4.90;99.90
12872;DHT22;6504;53.766;9.626;2022-11-25T07:21:29;4.90;99.90
12872;DHT22;6504;53.766;9.626;2022-11-25T07:23:59;4.90;99.90
12872;DHT22;6504;53.766;9.626;2022-11-25T07:26:30;4.90;99.90
12872;DHT22;6504;53.766;9.626;2022-11-25T07:28:59;4.90;99.90
12872;DHT22;6504;53.766;9.626;2022-11-25T07:31:29;4.90;99.90
12872;DHT22;6504;53.766;9.626;2022-11-25T07:34:02;4.90;99.90
12872;DHT22;6504;53.766;9.626;2022-11-25T07:36:31;4.90;99.90
12872;DHT22;6504;53.766;9.626;2022-11-25T07:39:02;4.90;99.90
12872;DHT22;6504;53.766;9.626;2022-11-25T07:41:33;5.00;99.90
12872;DHT22;6504;53.766;9.626;2022-11-25T07:44:04;5.00;99.90
12872;DHT22;6504;53.766;9.626;2022-11-25T07:46:34;5.00;99.90
12872;DHT22;6504;53.766;9.626;2022-11-25T07:49:04;5.00;99.90
12872;DHT22;6504;53.766;9.626;2022-11-25T07:51:35;5.00;99.90
12872;DHT22;6504;53.766;9.626;2022-11-25T07:54:05;5.10;99.90
12872;DHT22;6504;53.766;9.626;2022-11-25T07:56:36;5.10;99.90
12872;DHT22;6504;53.766;9.626;2022-11-25T07:59:06;5.10;99.90
12872;DHT22;6504;53.766;9.626;2022-11-25T08:01:35;5.10;99.90
12872;DHT22;6504;53.766;9.626;2022-11-25T08:04:03;5.10;99.90
12872;DHT22;6504;53.766;9.626;2022-11-25T08:06:36;5.10;99.90
12872;DHT22;6504;53.766;9.626;2022-11-25T08:09:05;5.10;99.90
12872;DHT22;6504;53.766;9.626;2022-11-25T08:11:35;5.10;99.90
12872;DHT22;6504;53.766;9.626;2022-11-25T08:14:03;5.10;99.90
12872;DHT22;6504;53.766;9.626;2022-11-25T08:16:32;5.10;99.90
12872;DHT22;6504;53.766;9.626;2022-11-25T08:19:02;5.10;99.90
12872;DHT22;6504;53.766;9.626;2022-11-25T08:21:30;5.10;99.90
12872;DHT22;6504;53.766;9.626;2022-11-25T08:23:58;5.10;99.90
12872;DHT22;6504;53.766;9.626;2022-11-25T08:26:30;5.10;99.90
12872;DHT22;6504;53.766;9.626;2022-11-25T08:29:02;5.10;99.90
12872;DHT22;6504;53.766;9.626;2022-11-25T08:31:32;5.10;99.90
12872;DHT22;6504;53.766;9.626;2022-11-25T08:34:01;5.20;99.90
12872;DHT22;6504;53.766;9.626;2022-11-25T08:36:30;5.10;99.90
12872;DHT22;6504;53.766;9.626;2022-11-25T08:39:00;5.20;99.90
12872;DHT22;6504;53.766;9.626;2022-11-25T08:41:35;5.20;99.90
12872;DHT22;6504;53.766;9.626;2022-11-25T08:44:07;5.20;99.90
12872;DHT22;6504;53.766;9.626;2022-11-25T08:46:36;5.20;99.90
12872;DHT22;6504;53.766;9.626;2022-11-25T08:49:07;5.20;99.90
12872;DHT22;6504;53.766;9.626;2022-11-25T08:51:36;5.20;99.90
12872;DHT22;6504;53.766;9.626;2022-11-25T08:54:06;5.20;99.90
12872;DHT22;6504;53.766;9.626;2022-11-25T08:56:35;5.20;99.90
12872;DHT22;6504;53.766;9.626;2022-11-25T08:59:04;5.20;99.90
12872;DHT22;6504;53.766;9.626;2022-11-25T09:01:32;5.20;99.90
12872;DHT22;6504;53.766;9.626;2022-11-25T09:04:00;5.30;99.90
12872;DHT22;6504;53.766;9.626;2022-11-25T09:06:29;5.30;99.90
12872;DHT22;6504;53.766;9.626;2022-11-25T09:08:57;5.30;99.90
12872;DHT22;6504;53.766;9.626;2022-11-25T09:11:27;5.30;99.90
12872;DHT22;6504;53.766;9.626;2022-11-25T09:13:56;5.30;99.90
12872;DHT22;6504;53.766;9.626;2022-11-25T09:16:25;5.30;99.90
12872;DHT22;6504;53.766;9.626;2022-11-25T09:18:54;5.30;99.90
12872;DHT22;6504;53.766;9.626;2022-11-25T09:21:22;5.30;99.90
12872;DHT22;6504;53.766;9.626;2022-11-25T09:23:52;5.30;99.90
12872;DHT22;6504;53.766;9.626;2022-11-25T09:26:22;5.30;99.90
12872;DHT22;6504;53.766;9.626;2022-11-25T09:28:50;5.40;99.90
12872;DHT22;6504;53.766;9.626;2022-11-25T09:31:19;5.30;99.90
12872;DHT22;6504;53.766;9.626;2022-11-25T09:33:49;5.40;99.90
12872;DHT22;6504;53.766;9.626;2022-11-25T09:36:18;5.40;99.90
12872;DHT22;6504;53.766;9.626;2022-11-25T09:38:47;5.40;99.90
12872;DHT22;6504;53.766;9.626;2022-11-25T09:41:24;5.40;99.90
12872;DHT22;6504;53.766;9.626;2022-11-25T09:44:22;5.40;99.90
12872;DHT22;6504;53.766;9.626;2022-11-25T09:47:17;5.50;99.90
12872;DHT22;6504;53.766;9.626;2022-11-25T09:50:02;5.50;99.90
12872;DHT22;6504;53.766;9.626;2022-11-25T09:52:42;5.50;99.90
12872;DHT22;6504;53.766;9.626;2022-11-25T09:55:15;5.50;99.90
12872;DHT22;6504;53.766;9.626;2022-11-25T09:57:55;5.60;99.90
12872;DHT22;6504;53.766;9.626;2022-11-25T10:00:29;5.60;99.90
12872;DHT22;6504;53.766;9.626;2022-11-25T10:03:05;5.60;99.90
12872;DHT22;6504;53.766;9.626;2022-11-25T10:05:41;5.60;99.90
12872;DHT22;6504;53.766;9.626;2022-11-25T10:08:13;5.60;99.90
12872;DHT22;6504;53.766;9.626;2022-11-25T10:10:44;5.70;99.90
12872;DHT22;6504;53.766;9.626;2022-11-25T10:13:17;5.70;99.90
12872;DHT22;6504;53.766;9.626;2022-11-25T10:15:49;5.70;99.90
12872;DHT22;6504;53.766;9.626;2022-11-25T10:18:22;5.70;99.90
12872;DHT22;6504;53.766;9.626;2022-11-25T10:20:53;5.70;99.90
12872;DHT22;6504;53.766;9.626;2022-11-25T10:23:24;5.70;99.90
12872;DHT22;6504;53.766;9.626;2022-11-25T10:25:57;5.80;99.90
12872;DHT22;6504;53.766;9.626;2022-11-25T10:28:30;5.80;99.90
12872;DHT22;6504;53.766;9.626;2022-11-25T10:31:02;5.80;99.90
12872;DHT22;6504;53.766;9.626;2022-11-25T10:33:36;5.80;99.90
12872;DHT22;6504;53.766;9.626;2022-11-25T10:36:13;5.80;99.90
12872;DHT22;6504;53.766;9.626;2022-11-25T10:38:45;5.90;99.90
12872;DHT22;6504;53.766;9.626;2022-11-25T10:41:20;5.90;99.90
12872;DHT22;6504;53.766;9.626;2022-11-25T10:43:50;6.00;99.90
12872;DHT22;6504;53.766;9.626;2022-11-25T10:46:25;6.00;99.90
12872;DHT22;6504;53.766;9.626;2022-11-25T10:49:23;6.00;99.90
12872;DHT22;6504;53.766;9.626;2022-11-25T10:51:56;6.00;99.90
12872;DHT22;6504;53.766;9.626;2022-11-25T10:54:27;6.00;99.90
12872;DHT22;6504;53.766;9.626;2022-11-25T10:56:58;6.00;99.90
12872;DHT22;6504;53.766;9.626;2022-11-25T10:59:30;6.10;99.90
12872;DHT22;6504;53.766;9.626;2022-11-25T11:02:18;6.10;99.90
12872;DHT22;6504;53.766;9.626;2022-11-25T11:04:54;6.10;99.90
12872;DHT22;6504;53.766;9.626;2022-11-25T11:07:30;6.10;99.90
12872;DHT22;6504;53.766;9.626;2022-11-25T11:10:16;6.20;99.90
12872;DHT22;6504;53.766;9.626;2022-11-25T11:13:04;6.20;99.90
12872;DHT22;6504;53.766;9.626;2022-11-25T11:15:45;6.20;99.90
12872;DHT22;6504;53.766;9.626;2022-11-25T11:18:24;6.20;99.90
12872;DHT22;6504;53.766;9.626;2022-11-25T11:20:57;6.30;99.90
12872;DHT22;6504;53.766;9.626;2022-11-25T11:23:46;6.30;99.90
12872;DHT22;6504;53.766;9.626;2022-11-25T11:26:22;6.30;99.90
12872;DHT22;6504;53.766;9.626;2022-11-25T11:28:59;6.30;99.90
12872;DHT22;6504;53.766;9.626;2022-11-25T11:31:32;6.30;99.90
12872;DHT22;6504;53.766;9.626;2022-11-25T11:34:23;6.40;99.90
12872;DHT22;6504;53.766;9.626;2022-11-25T11:37:17;6.40;99.90
12872;DHT22;6504;53.766;9.626;2022-11-25T11:40:11;6.40;99.90
12872;DHT22;6504;53.766;9.626;2022-11-25T11:42:49;6.50;99.90
12872;DHT22;6504;53.766;9.626;2022-11-25T11:45:33;6.50;99.90
12872;DHT22;6504;53.766;9.626;2022-11-25T11:48:11;6.50;99.90
12872;DHT22;6504;53.766;9.626;2022-11-25T11:50:45;6.50;99.90
12872;DHT22;6504;53.766;9.626;2022-11-25T11:53:20;6.50;99.90
12872;DHT22;6504;53.766;9.626;2022-11-25T11:55:59;6.60;99.90
12872;DHT22;6504;53.766;9.626;2022-11-25T11:58:59;6.60;99.90
12872;DHT22;6504;53.766;9.626;2022-11-25T12:01:39;6.60;99.90
12872;DHT22;6504;53.766;9.626;2022-11-25T12:04:16;6.60;99.90
12872;DHT22;6504;53.766;9.626;2022-11-25T12:06:59;6.70;99.90
12872;DHT22;6504;53.766;9.626;2022-11-25T12:09:32;6.70;99.90
12872;DHT22;6504;53.766;9.626;2022-11-25T12:12:08;6.80;99.90
12872;DHT22;6504;53.766;9.626;2022-11-25T12:14:42;6.80;99.90
12872;DHT22;6504;53.766;9.626;2022-11-25T12:17:15;6.90;99.90
12872;DHT22;6504;53.766;9.626;2022-11-25T12:19:51;6.90;99.90
12872;DHT22;6504;53.766;9.626;2022-11-25T12:22:24;6.90;99.90
12872;DHT22;6504;53.766;9.626;2022-11-25T12:25:00;7.00;99.90
12872;DHT22;6504;53.766;9.626;2022-11-25T12:27:33;7.00;99.90
12872;DHT22;6504;53.766;9.626;2022-11-25T12:30:06;7.10;99.90
12872;DHT22;6504;53.766;9.626;2022-11-25T12:32:51;7.10;99.90
12872;DHT22;6504;53.766;9.626;2022-11-25T12:35:27;7.10;99.90
12872;DHT22;6504;53.766;9.626;2022-11-25T12:38:04;7.10;99.90
12872;DHT22;6504;53.766;9.626;2022-11-25T12:40:36;7.10;99.90
12872;DHT22;6504;53.766;9.626;2022-11-25T12:43:24;7.10;99.90
12872;DHT22;6504;53.766;9.626;2022-11-25T12:46:03;7.10;99.90
12872;DHT22;6504;53.766;9.626;2022-11-25T12:48:37;7.20;99.90
12872;DHT22;6504;53.766;9.626;2022-11-25T12:51:14;7.20;99.90
12872;DHT22;6504;53.766;9.626;2022-11-25T12:53:48;7.20;99.90
12872;DHT22;6504;53.766;9.626;2022-11-25T12:56:26;7.20;99.90
12872;DHT22;6504;53.766;9.626;2022-11-25T12:59:17;7.20;99.90
12872;DHT22;6504;53.766;9.626;2022-11-25T13:02:03;7.30;99.90
12872;DHT22;6504;53.766;9.626;2022-11-25T13:05:11;7.30;99.90
12872;DHT22;6504;53.766;9.626;2022-11-25T13:08:14;7.30;99.90
12872;DHT22;6504;53.766;9.626;2022-11-25T13:10:59;7.30;99.90
12872;DHT22;6504;53.766;9.626;2022-11-25T13:13:36;7.30;99.90
12872;DHT22;6504;53.766;9.626;2022-11-25T13:16:09;7.40;99.90
12872;DHT22;6504;53.766;9.626;2022-11-25T13:18:41;7.40;99.90
12872;DHT22;6504;53.766;9.626;2022-11-25T13:21:10;7.40;99.90
12872;DHT22;6504;53.766;9.626;2022-11-25T13:23:49;7.40;99.90
12872;DHT22;6504;53.766;9.626;2022-11-25T13:26:36;7.40;99.90
12872;DHT22;6504;53.766;9.626;2022-11-25T13:31:57;7.40;99.90
12872;DHT22;6504;53.766;9.626;2022-11-25T13:34:27;7.40;99.90
12872;DHT22;6504;53.766;9.626;2022-11-25T13:36:57;7.50;99.90
12872;DHT22;6504;53.766;9.626;2022-11-25T13:39:30;7.50;99.90
12872;DHT22;6504;53.766;9.626;2022-11-25T13:42:01;7.50;99.90
12872;DHT22;6504;53.766;9.626;2022-11-25T13:44:31;7.50;99.90
12872;DHT22;6504;53.766;9.626;2022-11-25T13:47:27;7.50;99.90
12872;DHT22;6504;53.766;9.626;2022-11-25T13:49:59;7.50;99.90
12872;DHT22;6504;53.766;9.626;2022-11-25T13:52:41;7.60;99.90
12872;DHT22;6504;53.766;9.626;2022-11-25T13:55:23;7.60;99.90
12872;DHT22;6504;53.766;9.626;2022-11-25T13:58:14;7.60;99.90
12872;DHT22;6504;53.766;9.626;2022-11-25T14:01:02;7.60;99.90
12872;DHT22;6504;53.766;9.626;2022-11-25T14:03:51;7.60;99.90
12872;DHT22;6504;53.766;9.626;2022-11-25T14:09:32;7.60;99.90
12872;DHT22;6504;53.766;9.626;2022-11-25T14:12:34;7.70;99.90
12872;DHT22;6504;53.766;9.626;2022-11-25T14:15:31;7.70;99.90
12872;DHT22;6504;53.766;9.626;2022-11-25T14:18:34;7.70;99.90
12872;DHT22;6504;53.766;9.626;2022-11-25T14:21:49;7.70;99.90
12872;DHT22;6504;53.766;9.626;2022-11-25T14:24:29;7.70;99.90
12872;DHT22;6504;53.766;9.626;2022-11-25T14:27:02;7.70;99.90
12872;DHT22;6504;53.766;9.626;2022-11-25T14:29:36;7.70;99.90
12872;DHT22;6504;53.766;9.626;2022-11-25T14:32:09;7.70;99.90
12872;DHT22;6504;53.766;9.626;2022-11-25T14:34:41;7.80;99.90
12872;DHT22;6504;53.766;9.626;2022-11-25T14:37:16;7.80;99.90
12872;DHT22;6504;53.766;9.626;2022-11-25T14:39:51;7.80;99.90
12872;DHT22;6504;53.766;9.626;2022-11-25T14:42:23;7.80;99.90
12872;DHT22;6504;53.766;9.626;2022-11-25T14:44:53;7.80;99.90
12872;DHT22;6504;53.766;9.626;2022-11-25T14:47:26;7.80;99.90
12872;DHT22;6504;53.766;9.626;2022-11-25T14:49:57;7.80;99.90
12872;DHT22;6504;53.766;9.626;2022-11-25T14:52:47;7.80;99.90
12872;DHT22;6504;53.766;9.626;2022-11-25T14:55:24;7.80;99.90
12872;DHT22;6504;53.766;9.626;2022-11-25T14:57:54;7.80;99.90
12872;DHT22;6504;53.766;9.626;2022-11-25T15:00:23;7.80;99.90
12872;DHT22;6504;53.766;9.626;2022-11-25T15:02:53;7.80;99.90
12872;DHT22;6504;53.766;9.626;2022-11-25T15:05:23;7.80;99.90
12872;DHT22;6504;53.766;9.626;2022-11-25T15:07:58;7.80;99.90
12872;DHT22;6504;53.766;9.626;2022-11-25T15:10:48;7.80;99.90
12872;DHT22;6504;53.766;9.626;2022-11-25T15:13:29;7.80;99.90
12872;DHT22;6504;53.766;9.626;2022-11-25T15:16:05;7.90;99.90
12872;DHT22;6504;53.766;9.626;2022-11-25T15:18:33;7.80;99.90
12872;DHT22;6504;53.766;9.626;2022-11-25T15:21:03;7.80;99.90
12872;DHT22;6504;53.766;9.626;2022-11-25T15:23:35;7.80;99.90
12872;DHT22;6504;53.766;9.626;2022-11-25T15:26:16;7.80;99.90
12872;DHT22;6504;53.766;9.626;2022-11-25T15:28:44;7.80;99.90
12872;DHT22;6504;53.766;9.626;2022-11-25T15:31:18;7.80;99.90
12872;DHT22;6504;53.766;9.626;2022-11-25T15:33:47;7.90;99.90
12872;DHT22;6504;53.766;9.626;2022-11-25T15:36:21;7.80;99.90
12872;DHT22;6504;53.766;9.626;2022-11-25T15:38:50;7.80;99.90
12872;DHT22;6504;53.766;9.626;2022-11-25T15:41:25;7.90;99.90
12872;DHT22;6504;53.766;9.626;2022-11-25T15:43:55;7.80;99.90
12872;DHT22;6504;53.766;9.626;2022-11-25T15:46:25;7.80;99.90
12872;DHT22;6504;53.766;9.626;2022-11-25T15:48:55;7.80;99.90
12872;DHT22;6504;53.766;9.626;2022-11-25T15:51:32;7.80;99.90
12872;DHT22;6504;53.766;9.626;2022-11-25T15:54:04;7.80;99.90
12872;DHT22;6504;53.766;9.626;2022-11-25T15:56:36;7.80;99.90
12872;DHT22;6504;53.766;9.626;2022-11-25T15:59:36;7.80;99.90
12872;DHT22;6504;53.766;9.626;2022-11-25T16:02:38;7.80;99.90
12872;DHT22;6504;53.766;9.626;2022-11-25T16:05:21;7.80;99.90
12872;DHT22;6504;53.766;9.626;2022-11-25T16:07:57;7.80;99.90
12872;DHT22;6504;53.766;9.626;2022-11-25T16:10:29;7.80;99.90
12872;DHT22;6504;53.766;9.626;2022-11-25T16:13:21;7.80;99.90
12872;DHT22;6504;53.766;9.626;2022-11-25T16:15:56;7.80;99.90
12872;DHT22;6504;53.766;9.626;2022-11-25T16:18:30;7.80;99.90
12872;DHT22;6504;53.766;9.626;2022-11-25T16:21:08;7.80;99.90
12872;DHT22;6504;53.766;9.626;2022-11-25T16:23:39;7.80;99.90
12872;DHT22;6504;53.766;9.626;2022-11-25T16:26:15;7.80;99.90
12872;DHT22;6504;53.766;9.626;2022-11-25T16:28:51;7.90;99.90
12872;DHT22;6504;53.766;9.626;2022-11-25T16:31:20;7.80;99.90
12872;DHT22;6504;53.766;9.626;2022-11-25T16:33:49;7.80;99.90
12872;DHT22;6504;53.766;9.626;2022-11-25T16:36:19;7.80;99.90
12872;DHT22;6504;53.766;9.626;2022-11-25T16:38:50;7.80;99.90
12872;DHT22;6504;53.766;9.626;2022-11-25T16:41:23;7.80;99.90
12872;DHT22;6504;53.766;9.626;2022-11-25T16:43:52;7.90;99.90
12872;DHT22;6504;53.766;9.626;2022-11-25T16:46:25;7.90;99.90